WSSS/SIN METAR and TAF weather

Enter ICAO airport designator
Station Type Date Time Source
WSSS METAR 2024/02/26 17:30 UTC NOAA

WSSS 261730Z 35008KT 9999 FEW018 BKN070 27/24 Q1010 NOSIG


Station Type Date Time Source
WSSS Decoded METAR 2024/02/26 17:30 UTC NOAA

Singapore / Changi Airport, Singapore (WSSS) 01-22N 103-59E 16M
Feb 26, 2024 - 12:30 PM EST / 2024.02.26 1730 UTC
Wind: from the N (350 degrees) at 9 MPH (8 KT):0
Visibility: greater than 7 mile(s):0
Sky conditions: mostly cloudy
Temperature: 80 F (27 C)
Dew Point: 75 F (24 C)
Relative Humidity: 83%
Pressure (altimeter): 29.83 in. Hg (1010 hPa)
ob: WSSS 261730Z 35008KT 9999 FEW018 BKN070 27/24 Q1010 NOSIG
cycle: 17

Station Type Date Time Source
WSSS TAF 2024/02/26 18:10 UTC NOAA